createdAt,value
2019-04-11T00:03:06.503Z,11.17
2019-04-11T00:08:22.364Z,11.07
2019-04-11T00:13:36.718Z,13.30
2019-04-11T00:18:51.476Z,9.70
2019-04-11T00:24:06.986Z,10.67
2019-04-11T00:29:22.540Z,10.10
2019-04-11T00:34:37.667Z,9.60
2019-04-11T00:39:52.561Z,8.93
2019-04-11T00:45:07.621Z,8.77
2019-04-11T00:50:23.195Z,8.27
2019-04-11T00:55:38.003Z,11.17
2019-04-11T01:00:53.508Z,10.47
2019-04-11T01:06:10.037Z,10.67
2019-04-11T01:11:25.009Z,11.27
2019-04-11T01:16:45.076Z,10.10
2019-04-11T01:22:01.239Z,10.83
2019-04-11T01:27:16.092Z,8.13
2019-04-11T01:32:30.667Z,10.07
2019-04-11T01:37:46.070Z,9.10
2019-04-11T01:43:01.830Z,8.43
2019-04-11T01:48:21.643Z,6.97
2019-04-11T01:53:37.066Z,10.07
2019-04-11T01:58:51.555Z,8.97
2019-04-11T02:04:32.071Z,8.67
2019-04-11T02:09:46.409Z,7.03
2019-04-11T02:15:01.053Z,9.80
2019-04-11T02:20:16.740Z,8.00
2019-04-11T02:25:36.702Z,9.17
2019-04-11T02:30:55.640Z,9.37
2019-04-11T02:36:11.832Z,8.80
2019-04-11T02:41:27.375Z,9.63
2019-04-11T02:46:50.964Z,8.47
2019-04-11T02:51:58.614Z,8.50
2019-04-11T02:57:14.119Z,10.33
2019-04-11T03:02:32.671Z,8.77
2019-04-11T03:07:47.712Z,10.23
2019-04-11T03:13:02.992Z,7.67
2019-04-11T03:18:35.707Z,10.07
2019-04-11T03:23:35.453Z,11.53
2019-04-11T03:28:55.588Z,11.53
2019-04-11T03:39:43.924Z,9.07
2019-04-11T03:44:46.843Z,11.10
2019-04-11T03:50:05.361Z,9.33
2019-04-11T03:55:13.615Z,10.43
2019-04-11T04:00:34.056Z,8.17
2019-04-11T04:05:45.243Z,10.43
2019-04-11T04:11:12.141Z,8.70
2019-04-11T04:16:54.404Z,9.00
2019-04-11T04:22:16.091Z,8.60
2019-04-11T04:27:31.077Z,9.27
2019-04-11T04:32:47.147Z,9.43
2019-04-11T04:38:05.042Z,10.10
2019-04-11T04:43:20.319Z,9.80
2019-04-11T04:48:34.784Z,11.80
2019-04-11T04:53:50.131Z,8.50
2019-04-11T04:59:06.984Z,10.17
2019-04-11T05:04:21.130Z,10.33
2019-04-11T05:09:36.139Z,11.87
2019-04-11T05:14:51.953Z,10.37
2019-04-11T05:20:09.078Z,13.10
2019-04-11T05:25:23.907Z,11.57
2019-04-11T05:30:39.768Z,13.83
2019-04-11T05:35:54.538Z,9.90
2019-04-11T05:41:12.149Z,10.23
2019-04-11T05:46:33.441Z,13.70
2019-04-11T05:51:47.100Z,11.60
2019-04-11T05:57:01.236Z,9.67
2019-04-11T06:02:24.943Z,9.93
2019-04-11T06:07:55.612Z,10.07
2019-04-11T06:13:18.550Z,11.77
2019-04-11T06:18:52.205Z,12.50
2019-04-11T06:24:25.918Z,15.00
2019-04-11T06:29:45.621Z,10.43
2019-04-11T06:35:15.620Z,9.93
2019-04-11T06:40:41.836Z,15.70
2019-04-11T06:46:21.829Z,12.83
2019-04-11T06:51:40.659Z,10.47
2019-04-11T06:56:54.896Z,12.90
2019-04-11T07:02:17.327Z,12.77
2019-04-11T07:07:30.303Z,11.93
2019-04-11T07:13:03.453Z,12.57
2019-04-11T07:18:40.036Z,12.47
2019-04-11T07:24:12.115Z,14.00
2019-04-11T07:29:45.067Z,15.00
2019-04-11T07:35:27.741Z,13.17
2019-04-11T07:41:04.315Z,11.83
2019-04-11T07:46:40.720Z,13.53
2019-04-11T07:51:58.216Z,13.47
2019-04-11T07:57:23.714Z,10.60
2019-04-11T08:02:59.796Z,13.10
2019-04-11T08:08:32.390Z,13.67
2019-04-11T08:14:09.103Z,13.53
2019-04-11T08:19:55.360Z,14.47
2019-04-11T08:25:35.493Z,11.13
2019-04-11T08:31:28.617Z,12.33
2019-04-11T08:37:05.436Z,17.97
2019-04-11T08:42:44.808Z,12.27
2019-04-11T08:48:02.500Z,16.23
2019-04-11T08:53:48.988Z,15.17
2019-04-11T08:59:44.131Z,12.37
2019-04-11T09:05:20.745Z,13.30
2019-04-11T09:10:58.230Z,16.07
2019-04-11T09:16:30.359Z,13.63
2019-04-11T09:22:13.271Z,12.73
2019-04-11T09:27:45.111Z,15.97
2019-04-11T09:33:17.742Z,15.00
2019-04-11T09:38:38.116Z,12.80
2019-04-11T09:43:56.003Z,13.30
2019-04-11T09:49:27.101Z,13.60
2019-04-11T09:55:09.948Z,15.60
2019-04-11T10:00:43.195Z,15.97
2019-04-11T10:06:15.911Z,14.63
2019-04-11T10:11:55.342Z,14.20
2019-04-11T10:17:27.884Z,10.83
2019-04-11T10:23:04.690Z,14.40
2019-04-11T10:28:46.047Z,16.67
2019-04-11T10:34:17.982Z,12.63
2019-04-11T10:39:54.897Z,13.13
2019-04-11T10:45:28.875Z,13.10
2019-04-11T10:51:17.938Z,14.17
2019-04-11T10:56:39.138Z,15.67
2019-04-11T11:02:12.668Z,16.37
2019-04-11T11:07:30.760Z,17.73
2019-04-11T11:13:21.647Z,15.53
2019-04-11T11:19:24.526Z,17.73
2019-04-11T11:24:29.891Z,16.37
2019-04-11T11:30:04.278Z,14.73
2019-04-11T11:35:39.086Z,16.00
2019-04-11T11:41:18.404Z,14.37
2019-04-11T11:46:40.596Z,17.60
2019-04-11T11:52:31.945Z,17.20
2019-04-11T11:57:53.140Z,17.43
2019-04-11T12:03:30.743Z,15.67
2019-04-11T12:09:00.340Z,18.07
2019-04-11T12:14:35.228Z,19.17
2019-04-11T12:20:04.825Z,15.73
2019-04-11T12:25:27.450Z,19.83
2019-04-11T12:30:53.064Z,16.03
2019-04-11T12:36:20.986Z,13.63
2019-04-11T12:42:06.834Z,18.17
2019-04-11T12:47:46.225Z,17.67
2019-04-11T12:53:09.039Z,14.00
2019-04-11T12:58:49.140Z,17.17
2019-04-11T13:04:21.389Z,18.27
2019-04-11T13:09:40.689Z,15.73
2019-04-11T13:15:55.581Z,17.43
2019-04-11T13:21:23.141Z,16.23
2019-04-11T13:26:57.710Z,17.37
2019-04-11T13:32:32.119Z,15.97
2019-04-11T13:38:08.329Z,17.93
2019-04-11T13:43:42.158Z,16.17
2019-04-11T13:49:26.455Z,15.40
2019-04-11T13:55:00.415Z,16.80
2019-04-11T14:00:32.441Z,16.50
2019-04-11T14:05:49.818Z,16.20
2019-04-11T14:11:07.536Z,16.63
2019-04-11T14:16:34.684Z,14.70
2019-04-11T14:21:49.707Z,14.90
2019-04-11T14:27:06.467Z,16.10
2019-04-11T14:32:26.071Z,15.93
2019-04-11T14:37:59.654Z,13.63
2019-04-11T14:43:38.773Z,12.53
2019-04-11T14:49:18.019Z,14.83
2019-04-11T14:54:44.036Z,15.73
2019-04-11T15:00:43.147Z,16.17
2019-04-11T15:06:15.944Z,12.17
2019-04-11T15:11:52.121Z,14.33
2019-04-11T15:17:32.137Z,14.30
2019-04-11T15:23:00.590Z,15.10
2019-04-11T15:28:43.683Z,14.20
2019-04-11T15:34:21.017Z,12.00
2019-04-11T15:40:07.089Z,11.03
2019-04-11T15:45:33.976Z,11.90
2019-04-11T15:51:07.033Z,12.40
2019-04-11T15:57:02.724Z,10.60
2019-04-11T16:02:50.490Z,12.77
2019-04-11T16:08:23.761Z,10.50
2019-04-11T16:13:45.142Z,14.67
2019-04-11T16:19:17.718Z,12.83
2019-04-11T16:24:33.716Z,9.90
2019-04-11T16:29:56.419Z,11.30
2019-04-11T16:35:29.915Z,11.13
2019-04-11T16:41:28.295Z,10.37
2019-04-11T16:47:03.046Z,9.47
2019-04-11T16:52:17.568Z,9.67
2019-04-11T16:57:32.241Z,10.97
2019-04-11T17:02:46.653Z,10.10
2019-04-11T17:08:25.711Z,13.50
2019-04-11T17:13:38.594Z,9.30
2019-04-11T17:18:53.447Z,9.40
2019-04-11T17:24:10.339Z,10.43
2019-04-11T17:29:25.516Z,11.23
2019-04-11T17:34:39.981Z,9.30
2019-04-11T17:39:54.598Z,8.57
2019-04-11T17:45:12.245Z,10.97
2019-04-11T17:50:26.869Z,7.77
2019-04-11T18:01:00.399Z,11.67
2019-04-11T18:06:17.169Z,8.77
2019-04-11T18:11:32.197Z,11.67
2019-04-11T18:16:46.848Z,11.00
2019-04-11T18:22:07.754Z,11.20
2019-04-11T18:27:21.556Z,9.33
2019-04-11T18:32:36.749Z,9.90
2019-04-11T18:37:51.260Z,10.57
2019-04-11T18:43:06.224Z,12.73
2019-04-11T18:48:20.472Z,13.93
2019-04-11T18:53:36.065Z,11.07
2019-04-11T18:58:50.862Z,12.50
2019-04-11T19:04:11.721Z,12.97
2019-04-11T19:09:25.027Z,13.63
2019-04-11T19:14:43.810Z,11.67
2019-04-11T19:20:31.518Z,13.37
2019-04-11T19:25:46.395Z,10.47
2019-04-11T19:31:01.655Z,12.67
2019-04-11T19:36:16.464Z,11.20
2019-04-11T19:41:31.397Z,11.33
2019-04-11T19:46:45.814Z,11.40
2019-04-11T19:52:02.068Z,12.77
2019-04-11T19:57:16.743Z,11.13
2019-04-11T20:02:34.626Z,13.43
2019-04-11T20:07:49.215Z,12.87
2019-04-11T20:13:03.816Z,11.03
2019-04-11T20:18:22.215Z,11.80
2019-04-11T20:23:34.332Z,13.60
2019-04-11T20:28:50.886Z,11.80
2019-04-11T20:34:09.164Z,10.53
2019-04-11T20:39:26.742Z,9.30
2019-04-11T20:44:41.392Z,11.17
2019-04-11T20:49:56.336Z,13.40
2019-04-11T20:55:14.477Z,9.67
2019-04-11T21:00:30.245Z,12.10
2019-04-11T21:05:44.933Z,12.80
2019-04-11T21:11:02.003Z,11.73
2019-04-11T21:16:19.008Z,11.27
2019-04-11T21:21:34.092Z,9.80
2019-04-11T21:26:48.608Z,10.53
2019-04-11T21:32:03.173Z,7.87
2019-04-11T21:37:17.962Z,10.57
2019-04-11T21:42:36.058Z,7.90
2019-04-11T21:47:50.205Z,10.57
2019-04-11T21:53:04.907Z,8.63
2019-04-11T21:58:20.091Z,9.97
2019-04-11T22:03:35.128Z,8.10
2019-04-11T22:08:50.183Z,11.90
2019-04-11T22:14:05.000Z,8.70
2019-04-11T22:19:20.114Z,7.93
2019-04-11T22:24:34.561Z,10.77
2019-04-11T22:29:49.085Z,8.67
2019-04-11T22:35:03.548Z,8.13
2019-04-11T22:40:17.830Z,9.77
2019-04-11T22:45:32.526Z,7.93
2019-04-11T22:50:47.513Z,6.63
2019-04-11T22:56:01.817Z,9.37
2019-04-11T23:01:17.160Z,8.87
2019-04-11T23:06:31.675Z,8.50
2019-04-11T23:11:47.948Z,12.60
2019-04-11T23:17:03.971Z,11.03
2019-04-11T23:22:18.802Z,9.47
2019-04-11T23:27:33.240Z,7.83
2019-04-11T23:32:50.829Z,8.60
2019-04-11T23:38:03.543Z,9.93
2019-04-11T23:43:19.888Z,10.37
2019-04-11T23:48:34.294Z,11.87
2019-04-11T23:53:48.727Z,8.07
2019-04-11T23:59:03.291Z,8.17
